Time;durP1;ratioP1;P1;durP2;ratioP2;P2;SDS_P1;SDS_P2;PMS_P1;PMS_P2;Temp;Humidity;BMP_temperature;BMP_pressure;BME280_temperature;BME280_humidity;BME280_pressure;Samples;Min_cycle;Max_cycle;Signal;HPM_P1;HPM_P2
2022/07/30 00:01:21;;;;;;;13.52;11.10;;;20.80;99.90;;;;;;5031134;28;20046;-74
2022/07/30 00:03:49;;;;;;;13.98;11.55;;;20.80;99.90;;;;;;5023195;28;20076;-75
2022/07/30 00:06:16;;;;;;;14.63;11.73;;;20.80;99.90;;;;;;5015488;28;20061;-76
2022/07/30 00:08:43;;;;;;;13.48;12.07;;;20.70;99.90;;;;;;4997751;28;20080;-73
2022/07/30 00:11:12;;;;;;;13.10;11.55;;;20.70;99.90;;;;;;5015384;28;20042;-74
2022/07/30 00:13:39;;;;;;;16.33;12.20;;;20.60;99.90;;;;;;5015195;28;20100;-74
2022/07/30 00:16:06;;;;;;;13.90;11.40;;;20.70;99.90;;;;;;5015165;28;20050;-75
2022/07/30 00:18:35;;;;;;;13.55;11.57;;;20.60;99.90;;;;;;5015247;28;20077;-75
2022/07/30 00:21:02;;;;;;;14.63;12.13;;;20.70;99.90;;;;;;5015806;28;20121;-74
2022/07/30 00:23:31;;;;;;;13.20;10.98;;;20.70;99.90;;;;;;4997540;28;20413;-74
2022/07/30 00:25:58;;;;;;;15.60;11.60;;;20.70;99.90;;;;;;5014592;28;20038;-75
2022/07/30 00:28:25;;;;;;;13.68;11.38;;;20.70;99.90;;;;;;5015309;28;20077;-74
2022/07/30 00:30:52;;;;;;;13.13;11.70;;;20.70;99.90;;;;;;5015245;28;20394;-75
2022/07/30 00:33:20;;;;;;;13.35;11.95;;;20.70;99.90;;;;;;4997171;28;20455;-76
2022/07/30 00:35:49;;;;;;;14.38;11.38;;;20.70;99.90;;;;;;4997619;28;20038;-74
2022/07/30 00:38:16;;;;;;;14.02;11.98;;;20.60;99.90;;;;;;4996892;28;20509;-74
2022/07/30 00:40:46;;;;;;;11.75;10.65;;;20.60;99.90;;;;;;5015047;28;20129;-74
2022/07/30 00:43:16;;;;;;;13.40;12.10;;;20.60;99.90;;;;;;4996215;28;20489;-77
2022/07/30 00:45:43;;;;;;;12.93;11.63;;;20.50;99.90;;;;;;4993732;28;20108;-75
2022/07/30 00:48:11;;;;;;;12.82;11.52;;;20.40;99.90;;;;;;4995290;28;20077;-74
2022/07/30 00:50:39;;;;;;;12.60;10.65;;;20.40;99.90;;;;;;4994956;28;20050;-74
2022/07/30 00:53:08;;;;;;;12.57;11.23;;;20.30;99.90;;;;;;4977446;28;20054;-74
2022/07/30 00:55:36;;;;;;;15.05;12.27;;;20.30;99.90;;;;;;4987563;28;20452;-74
2022/07/30 00:58:04;;;;;;;33.95;26.40;;;20.30;99.90;;;;;;5014591;28;20115;-75
2022/07/30 01:00:32;;;;;;;29.48;24.02;;;20.20;99.90;;;;;;4996892;28;20045;-74
2022/07/30 01:02:59;;;;;;;13.43;12.02;;;20.20;99.90;;;;;;5014077;28;20041;-74
2022/07/30 01:05:27;;;;;;;13.32;12.05;;;20.20;99.90;;;;;;4997162;28;20042;-74
2022/07/30 01:07:54;;;;;;;12.90;11.65;;;20.10;99.90;;;;;;4997038;28;20115;-74
2022/07/30 01:10:23;;;;;;;12.85;11.65;;;20.10;99.90;;;;;;5015487;28;20076;-74
2022/07/30 01:12:51;;;;;;;14.15;12.65;;;20.10;99.90;;;;;;4996931;28;20054;-75
2022/07/30 01:15:19;;;;;;;14.15;11.48;;;20.10;99.90;;;;;;4997469;28;20081;-74
2022/07/30 01:17:49;;;;;;;14.63;12.77;;;20.10;99.90;;;;;;4996895;28;20065;-74
2022/07/30 01:20:19;;;;;;;13.75;12.35;;;20.20;99.90;;;;;;5014536;28;20054;-75
2022/07/30 01:22:55;;;;;;;14.90;12.40;;;20.20;99.90;;;;;;4996753;28;20107;-74
2022/07/30 01:25:48;;;;;;;14.95;12.02;;;20.20;99.90;;;;;;4996853;28;20447;-74
2022/07/30 01:28:21;;;;;;;17.75;12.70;;;20.10;99.90;;;;;;5013808;28;20119;-75
2022/07/30 01:30:49;;;;;;;15.25;12.70;;;20.00;99.90;;;;;;4997394;28;20136;-74
2022/07/30 01:33:19;;;;;;;13.90;12.50;;;20.00;99.90;;;;;;5015795;28;20050;-75
2022/07/30 01:35:48;;;;;;;14.15;12.85;;;19.90;99.90;;;;;;5004732;28;20052;-74
2022/07/30 01:38:20;;;;;;;14.48;13.00;;;20.00;99.90;;;;;;5003308;28;20085;-74
2022/07/30 01:40:50;;;;;;;15.98;12.70;;;20.00;99.90;;;;;;5005353;28;20078;-75
2022/07/30 01:43:20;;;;;;;13.50;12.30;;;20.00;99.90;;;;;;4995856;28;20061;-74
2022/07/30 01:45:49;;;;;;;15.38;13.15;;;19.90;99.90;;;;;;4996418;28;20054;-74
2022/07/30 01:48:20;;;;;;;12.80;11.60;;;19.80;99.90;;;;;;5010971;28;20061;-74
2022/07/30 01:50:51;;;;;;;14.05;12.63;;;19.80;99.90;;;;;;5002820;28;20102;-75
2022/07/30 01:53:23;;;;;;;13.57;12.35;;;19.70;99.90;;;;;;4984891;28;20078;-73
2022/07/30 01:55:54;;;;;;;15.55;12.55;;;19.70;99.90;;;;;;5000997;28;20047;-74
2022/07/30 01:58:27;;;;;;;13.95;12.65;;;19.70;99.90;;;;;;4994389;28;20141;-72
2022/07/30 02:00:58;;;;;;;14.38;12.88;;;19.70;99.90;;;;;;4993557;28;20058;-73
2022/07/30 02:03:28;;;;;;;14.30;12.80;;;19.60;99.90;;;;;;4993442;28;20105;-73
2022/07/30 02:06:01;;;;;;;18.33;13.43;;;19.60;99.90;;;;;;4993378;28;20058;-74
2022/07/30 02:08:35;;;;;;;13.90;12.50;;;19.60;99.90;;;;;;4993598;28;20042;-74
2022/07/30 02:11:07;;;;;;;14.70;13.25;;;19.60;99.90;;;;;;5003465;28;20049;-74
2022/07/30 02:13:40;;;;;;;14.30;12.90;;;19.60;99.90;;;;;;5009436;28;20054;-74
2022/07/30 02:16:14;;;;;;;14.98;13.57;;;19.60;99.90;;;;;;5010249;28;20077;-75
2022/07/30 02:18:50;;;;;;;15.20;13.55;;;19.50;99.90;;;;;;5010650;28;20050;-74
2022/07/30 02:21:20;;;;;;;13.95;12.55;;;19.50;99.90;;;;;;4997354;28;20137;-75
2022/07/30 02:23:49;;;;;;;15.15;13.45;;;19.40;99.90;;;;;;4974910;28;20043;-74
2022/07/30 02:26:21;;;;;;;15.13;13.52;;;19.40;99.90;;;;;;4974540;28;20469;-74
2022/07/30 02:28:51;;;;;;;15.10;13.60;;;19.30;99.90;;;;;;4974766;28;20050;-74
2022/07/30 02:31:24;;;;;;;15.98;13.80;;;19.30;99.90;;;;;;4973499;28;20513;-74
2022/07/30 02:33:58;;;;;;;14.27;12.98;;;19.30;99.90;;;;;;4973382;28;20093;-74
2022/07/30 02:36:28;;;;;;;15.07;13.68;;;19.20;99.90;;;;;;4986597;28;20141;-74
2022/07/30 02:38:58;;;;;;;14.48;12.98;;;19.20;99.90;;;;;;4974548;28;20119;-74
2022/07/30 02:41:28;;;;;;;15.23;13.40;;;19.30;99.90;;;;;;4973137;28;20050;-74
2022/07/30 02:43:57;;;;;;;15.15;13.57;;;19.30;99.90;;;;;;4974295;28;20047;-74
2022/07/30 02:46:26;;;;;;;14.50;13.10;;;19.30;99.90;;;;;;4973200;28;20098;-73
2022/07/30 02:49:35;;;;;;;16.05;13.57;;;19.40;99.90;;;;;;4978213;28;20050;-73
2022/07/30 02:52:07;;;;;;;15.40;13.82;;;19.30;99.90;;;;;;4977079;28;20101;-73
2022/07/30 02:54:39;;;;;;;15.43;13.85;;;19.30;99.90;;;;;;4982909;28;20058;-73
2022/07/30 02:57:10;;;;;;;16.15;14.02;;;19.30;99.90;;;;;;4995678;28;20043;-74
2022/07/30 02:59:40;;;;;;;15.10;13.80;;;19.30;99.90;;;;;;4997321;28;20148;-74
2022/07/30 03:02:11;;;;;;;16.00;14.40;;;19.30;99.90;;;;;;4995979;28;20054;-73
2022/07/30 03:04:39;;;;;;;15.90;13.93;;;19.30;99.90;;;;;;4995984;28;20046;-73
2022/07/30 03:07:08;;;;;;;15.20;13.55;;;19.30;99.90;;;;;;4997345;28;20039;-73
2022/07/30 03:09:36;;;;;;;14.18;12.57;;;19.30;99.90;;;;;;4996197;28;20042;-74
2022/07/30 03:12:05;;;;;;;13.95;12.55;;;19.30;99.90;;;;;;4995851;28;20077;-74
2022/07/30 03:14:34;;;;;;;15.20;13.00;;;19.20;99.90;;;;;;4997135;28;20057;-75
2022/07/30 03:17:04;;;;;;;17.17;14.20;;;19.20;99.90;;;;;;4995885;28;20046;-75
2022/07/30 03:19:37;;;;;;;15.93;14.27;;;19.10;99.90;;;;;;4995692;28;20057;-74
2022/07/30 03:22:06;;;;;;;15.35;13.57;;;19.10;99.90;;;;;;4997293;28;20636;-75
2022/07/30 03:24:36;;;;;;;15.05;13.45;;;19.10;99.90;;;;;;4997841;28;20046;-75
2022/07/30 03:27:04;;;;;;;14.77;13.30;;;19.10;99.90;;;;;;5001051;28;20050;-75
2022/07/30 03:29:36;;;;;;;14.90;13.45;;;19.10;99.90;;;;;;5000497;28;20045;-74
2022/07/30 03:32:05;;;;;;;15.68;14.02;;;19.10;99.90;;;;;;5016753;28;20026;-74
2022/07/30 03:34:34;;;;;;;17.38;15.40;;;19.10;99.90;;;;;;5020265;28;20026;-75
2022/07/30 03:37:03;;;;;;;16.05;14.50;;;19.10;99.90;;;;;;5006771;28;20081;-72
2022/07/30 03:39:34;;;;;;;17.65;14.82;;;19.10;99.90;;;;;;4998774;28;20060;-75
2022/07/30 03:42:04;;;;;;;15.70;14.07;;;19.10;99.90;;;;;;4998650;28;20054;-75
2022/07/30 03:44:35;;;;;;;19.73;15.07;;;19.00;99.90;;;;;;4998813;28;20074;-74
2022/07/30 03:47:07;;;;;;;19.20;16.55;;;19.00;99.90;;;;;;5021613;28;20092;-73
2022/07/30 03:49:42;;;;;;;17.95;16.15;;;19.00;99.90;;;;;;4998409;28;20054;-74
2022/07/30 03:52:11;;;;;;;19.30;17.30;;;19.00;99.90;;;;;;4998347;28;20571;-74
2022/07/30 03:54:39;;;;;;;28.60;25.70;;;19.00;99.90;;;;;;4998090;28;20050;-75
2022/07/30 03:57:26;;;;;;;35.45;31.80;;;19.00;99.90;;;;;;5016723;28;20053;-74
2022/07/30 03:59:55;;;;;;;37.30;32.47;;;19.00;99.90;;;;;;5014779;28;20057;-74
2022/07/30 04:02:22;;;;;;;33.35;29.85;;;19.00;99.90;;;;;;4997907;28;20437;-74
2022/07/30 04:05:22;;;;;;;24.38;20.23;;;19.00;99.90;;;;;;5002395;28;20184;-74
2022/07/30 04:07:51;;;;;;;16.63;14.95;;;19.10;99.90;;;;;;4998571;28;20056;-74
2022/07/30 04:10:20;;;;;;;18.15;15.45;;;19.20;99.90;;;;;;4998179;28;20042;-75
2022/07/30 04:13:00;;;;;;;17.48;14.13;;;19.40;99.90;;;;;;5015036;28;20061;-74
2022/07/30 04:15:37;;;;;;;13.63;12.18;;;19.80;99.90;;;;;;4997440;28;20173;-74
2022/07/30 04:18:07;;;;;;;15.13;13.52;;;19.90;99.90;;;;;;4997951;28;20437;-74
2022/07/30 04:20:43;;;;;;;19.73;15.93;;;19.90;99.90;;;;;;4997370;28;20057;-74
2022/07/30 04:23:11;;;;;;;16.60;14.85;;;19.80;99.90;;;;;;4997735;28;20049;-74
2022/07/30 04:25:42;;;;;;;16.55;14.88;;;19.80;99.90;;;;;;4997155;28;20096;-74
2022/07/30 04:28:10;;;;;;;17.75;14.75;;;19.90;99.90;;;;;;4994525;28;20042;-74
2022/07/30 04:30:41;;;;;;;16.17;14.57;;;20.00;99.90;;;;;;4978164;28;20046;-75
2022/07/30 04:33:08;;;;;;;16.65;14.77;;;20.00;99.90;;;;;;4978052;28;20104;-75
2022/07/30 04:35:41;;;;;;;16.60;14.85;;;20.00;99.90;;;;;;5010914;28;20042;-75
2022/07/30 04:38:18;;;;;;;18.33;16.33;;;19.90;99.90;;;;;;5015203;28;20050;-75
2022/07/30 04:40:51;;;;;;;17.52;14.60;;;19.90;99.90;;;;;;4997712;28;20116;-74
2022/07/30 04:43:18;;;;;;;19.52;13.13;;;20.20;99.90;;;;;;4997250;28;20053;-74
2022/07/30 04:45:47;;;;;;;15.63;13.68;;;20.90;99.90;;;;;;4997721;28;20045;-74
2022/07/30 04:48:15;;;;;;;16.95;12.07;;;21.80;99.90;;;;;;4997389;28;20046;-75
2022/07/30 04:50:46;;;;;;;16.15;11.43;;;22.40;99.90;;;;;;5014998;28;20046;-75
2022/07/30 04:53:18;;;;;;;13.10;11.30;;;23.10;99.90;;;;;;4997012;28;20465;-76
2022/07/30 04:55:52;;;;;;;13.77;10.77;;;23.50;99.90;;;;;;4996710;28;20061;-74
2022/07/30 04:58:22;;;;;;;13.65;11.18;;;23.40;99.90;;;;;;4997047;28;20046;-75
2022/07/30 05:00:53;;;;;;;13.95;11.75;;;23.10;99.90;;;;;;5014488;28;20046;-75
2022/07/30 05:03:26;;;;;;;14.80;11.65;;;23.10;99.90;;;;;;4996957;28;20050;-75
2022/07/30 05:05:55;;;;;;;14.77;11.98;;;22.80;99.90;;;;;;4997112;28;20044;-76
2022/07/30 05:08:23;;;;;;;20.45;11.80;;;23.00;99.90;;;;;;4993831;28;20042;-75
2022/07/30 05:10:51;;;;;;;13.48;12.18;;;23.00;99.90;;;;;;4978504;28;20561;-74
2022/07/30 05:13:18;;;;;;;15.00;13.18;;;23.20;99.90;;;;;;4994636;28;20048;-75
2022/07/30 05:15:47;;;;;;;12.13;10.93;;;23.40;99.90;;;;;;4997627;28;20401;-75
2022/07/30 05:18:19;;;;;;;14.65;12.68;;;23.50;99.90;;;;;;4997398;28;20057;-75
2022/07/30 05:20:47;;;;;;;14.68;11.88;;;23.90;99.90;;;;;;5014544;28;20046;-74
2022/07/30 05:23:19;;;;;;;15.48;13.07;;;24.80;99.90;;;;;;5001901;28;20409;-75
2022/07/30 05:25:56;;;;;;;11.52;10.45;;;25.80;99.90;;;;;;5001439;28;20409;-75
2022/07/30 05:28:30;;;;;;;14.40;11.18;;;26.60;99.90;;;;;;4994752;28;20495;-75
2022/07/30 05:31:00;;;;;;;17.65;15.50;;;27.30;99.90;;;;;;4984317;28;20050;-75
2022/07/30 05:33:30;;;;;;;21.98;19.67;;;27.70;99.90;;;;;;4996206;28;20054;-76
2022/07/30 05:35:59;;;;;;;13.75;12.30;;;27.90;99.90;;;;;;4996464;28;20050;-76
2022/07/30 05:38:27;;;;;;;15.40;13.45;;;28.00;99.90;;;;;;4996644;28;20050;-75
2022/07/30 05:41:14;;;;;;;11.90;10.80;;;28.20;99.90;;;;;;5017975;28;20049;-75
2022/07/30 05:44:14;;;;;;;15.30;12.38;;;28.30;99.90;;;;;;5003140;28;20053;-75
2022/07/30 05:46:42;;;;;;;16.17;11.75;;;28.50;99.90;;;;;;4996372;28;20073;-76
2022/07/30 05:49:11;;;;;;;16.17;10.93;;;28.40;99.90;;;;;;5013860;28;20058;-76
2022/07/30 05:51:40;;;;;;;13.00;10.05;;;28.30;99.90;;;;;;4996198;28;20097;-75
2022/07/30 05:54:07;;;;;;;14.93;12.57;;;28.00;99.90;;;;;;4996174;28;20515;-75
2022/07/30 05:56:39;;;;;;;15.23;10.88;;;27.70;99.90;;;;;;5013799;28;20049;-76
2022/07/30 05:59:20;;;;;;;13.90;11.75;;;27.80;99.90;;;;;;4993001;28;20054;-75
2022/07/30 06:02:08;;;;;;;13.13;10.63;;;28.00;99.90;;;;;;4977551;28;20046;-76
2022/07/30 06:04:49;;;;;;;11.77;9.98;;;28.10;99.90;;;;;;4996046;28;20133;-76
2022/07/30 06:07:17;;;;;;;13.70;9.90;;;28.30;99.90;;;;;;4976584;28;20054;-75
2022/07/30 06:09:44;;;;;;;11.32;10.15;;;28.30;99.90;;;;;;4976679;28;20058;-75
2022/07/30 06:12:12;;;;;;;12.25;9.88;;;28.40;99.90;;;;;;4976842;28;20050;-75
2022/07/30 06:14:41;;;;;;;14.75;13.13;;;28.10;99.90;;;;;;4976392;28;20104;-75
2022/07/30 06:17:12;;;;;;;14.90;13.40;;;27.90;99.90;;;;;;4976195;28;20141;-76
2022/07/30 06:20:04;;;;;;;14.50;11.98;;;28.10;99.90;;;;;;4993662;28;20054;-74
2022/07/30 06:22:40;;;;;;;15.43;12.65;;;28.40;99.90;;;;;;4977311;28;20133;-76
2022/07/30 06:25:13;;;;;;;16.73;14.52;;;28.70;99.90;;;;;;4980501;28;20125;-75
2022/07/30 06:27:40;;;;;;;20.40;15.48;;;28.90;99.90;;;;;;4980686;28;20046;-75
2022/07/30 06:30:11;;;;;;;16.15;13.65;;;28.90;99.90;;;;;;4980128;28;20050;-76
2022/07/30 06:32:38;;;;;;;20.95;13.32;;;29.00;99.90;;;;;;4980136;28;20050;-75
2022/07/30 06:35:08;;;;;;;14.73;12.73;;;29.30;99.90;;;;;;4980890;28;20050;-75
2022/07/30 06:37:37;;;;;;;20.17;14.60;;;29.50;99.90;;;;;;4991252;28;20054;-76
2022/07/30 06:40:05;;;;;;;19.80;16.55;;;29.60;99.90;;;;;;5000324;28;20497;-74
2022/07/30 06:42:57;;;;;;;15.50;13.88;;;29.70;99.90;;;;;;5001728;28;20103;-75
2022/07/30 06:45:47;;;;;;;16.58;13.75;;;29.80;99.90;;;;;;5038067;28;20050;-75
2022/07/30 06:48:22;;;;;;;18.15;15.20;;;29.70;99.90;;;;;;5021669;28;20034;-75
2022/07/30 06:50:51;;;;;;;19.02;15.32;;;29.80;99.90;;;;;;5016558;28;20134;-74
2022/07/30 06:53:19;;;;;;;18.33;15.18;;;30.00;99.90;;;;;;5006659;28;20048;-75
2022/07/30 06:56:24;;;;;;;21.92;17.25;;;30.30;99.90;;;;;;4964100;28;20059;-74
2022/07/30 06:58:57;;;;;;;19.10;16.15;;;30.30;99.90;;;;;;4942408;29;20053;-75
2022/07/30 07:01:47;;;;;;;16.60;14.63;;;30.60;99.90;;;;;;4959786;28;20054;-74
2022/07/30 07:04:15;;;;;;;17.17;12.80;;;30.40;99.90;;;;;;4999931;28;20070;-75
2022/07/30 07:06:44;;;;;;;15.35;13.57;;;30.20;99.90;;;;;;5016621;28;20420;-74
2022/07/30 07:09:15;;;;;;;18.92;13.75;;;30.20;99.90;;;;;;4999606;28;20046;-76
2022/07/30 07:11:50;;;;;;;16.20;12.73;;;30.40;99.90;;;;;;4999403;28;20050;-76
2022/07/30 07:14:19;;;;;;;14.68;12.50;;;30.50;99.90;;;;;;5002174;28;20136;-74
2022/07/30 07:16:48;;;;;;;13.73;12.02;;;30.40;99.90;;;;;;4998860;28;20064;-75
2022/07/30 07:19:42;;;;;;;13.38;11.80;;;30.60;99.90;;;;;;4973381;28;20058;-75
2022/07/30 07:22:10;;;;;;;13.55;12.13;;;30.90;99.90;;;;;;4991822;28;20073;-75
2022/07/30 07:24:38;;;;;;;13.43;11.27;;;31.00;99.90;;;;;;4996488;28;20140;-75
2022/07/30 07:27:12;;;;;;;13.27;11.95;;;31.00;99.90;;;;;;4983235;28;20042;-75
2022/07/30 07:29:41;;;;;;;15.35;11.45;;;31.00;99.90;;;;;;4997931;28;20113;-76
2022/07/30 07:32:09;;;;;;;13.25;11.63;;;31.00;99.90;;;;;;5003114;28;20042;-76
2022/07/30 07:34:39;;;;;;;16.80;12.55;;;31.00;99.80;;;;;;4986871;28;20440;-75
2022/07/30 07:37:10;;;;;;;19.27;15.27;;;31.20;99.60;;;;;;4998322;28;20060;-74
2022/07/30 07:39:38;;;;;;;13.30;12.00;;;31.20;99.90;;;;;;4998279;28;20141;-76
2022/07/30 07:42:06;;;;;;;13.52;12.23;;;31.20;98.70;;;;;;5004143;28;20116;-75
2022/07/30 07:44:33;;;;;;;15.05;12.63;;;31.20;98.80;;;;;;5008431;28;20053;-76
2022/07/30 07:47:00;;;;;;;15.30;13.68;;;31.10;99.00;;;;;;5003503;28;20119;-75
2022/07/30 07:49:32;;;;;;;15.77;13.10;;;31.30;98.70;;;;;;4998769;28;20042;-75
2022/07/30 07:52:01;;;;;;;15.45;12.95;;;31.10;97.80;;;;;;4998117;28;20046;-75
2022/07/30 07:54:31;;;;;;;13.68;11.88;;;31.20;97.50;;;;;;4999613;28;20437;-74
2022/07/30 07:56:58;;;;;;;12.57;10.57;;;31.30;96.60;;;;;;5015258;28;20069;-76
2022/07/30 07:59:39;;;;;;;13.50;10.75;;;31.30;96.10;;;;;;5000507;28;20045;-75
2022/07/30 08:02:07;;;;;;;11.95;10.85;;;31.40;96.20;;;;;;4998490;28;20120;-76
2022/07/30 08:04:38;;;;;;;12.80;11.05;;;31.30;95.70;;;;;;5015014;28;20049;-75
2022/07/30 08:07:11;;;;;;;12.90;11.52;;;31.40;95.50;;;;;;5015543;28;20112;-75
2022/07/30 08:10:09;;;;;;;13.05;11.65;;;31.50;95.50;;;;;;5017151;28;20045;-75
2022/07/30 08:13:01;;;;;;;14.45;10.95;;;31.40;95.30;;;;;;5000790;28;20409;-74
2022/07/30 08:15:55;;;;;;;12.70;11.13;;;31.50;95.80;;;;;;4980685;28;20168;-75
2022/07/30 08:18:40;;;;;;;;;;;31.50;95.40;;;;;;5016435;28;20108;-76
2022/07/30 08:21:30;;;;;;;18.17;13.93;;;31.80;95.30;;;;;;5016141;28;19922;-75
2022/07/30 08:23:58;;;;;;;14.07;10.30;;;31.70;94.30;;;;;;5015687;28;20065;-75
2022/07/30 08:26:26;;;;;;;11.98;10.73;;;31.70;94.50;;;;;;5016369;28;20050;-76
2022/07/30 08:28:54;;;;;;;11.45;10.25;;;31.70;94.50;;;;;;5008422;28;20042;-74
2022/07/30 08:31:22;;;;;;;11.95;10.70;;;31.30;94.60;;;;;;4997636;28;20052;-75
2022/07/30 08:33:49;;;;;;;12.32;10.25;;;31.50;94.70;;;;;;5015150;28;20382;-76
2022/07/30 08:36:17;;;;;;;10.77;9.63;;;31.60;94.60;;;;;;4996910;28;20097;-75
2022/07/30 08:38:45;;;;;;;14.25;10.23;;;31.60;94.50;;;;;;4997389;28;20045;-76
2022/07/30 08:41:13;;;;;;;10.43;9.25;;;31.60;94.50;;;;;;4997342;28;20049;-75
2022/07/30 08:43:42;;;;;;;15.75;11.40;;;31.70;94.40;;;;;;4996651;28;20050;-75
2022/07/30 08:46:14;;;;;;;16.42;10.55;;;31.80;94.50;;;;;;4996210;28;20522;-75
2022/07/30 08:49:02;;;;;;;13.63;9.65;;;31.90;94.40;;;;;;5014220;28;20064;-75
2022/07/30 08:51:29;;;;;;;11.35;9.65;;;32.10;93.70;;;;;;4999677;28;20425;-76
2022/07/30 08:54:16;;;;;;;15.15;9.50;;;32.30;93.70;;;;;;5014225;28;20092;-75
2022/07/30 08:56:44;;;;;;;11.35;9.70;;;32.50;93.10;;;;;;4996881;28;20525;-76
2022/07/30 08:59:14;;;;;;;13.73;10.32;;;32.60;92.70;;;;;;4997412;28;20047;-75
2022/07/30 09:01:41;;;;;;;11.75;10.38;;;33.00;92.30;;;;;;5014510;28;20104;-75
2022/07/30 09:04:08;;;;;;;12.80;8.65;;;33.00;91.80;;;;;;4997494;28;20041;-74
2022/07/30 09:06:37;;;;;;;10.88;9.77;;;32.40;91.90;;;;;;4996528;28;20061;-76
2022/07/30 09:09:05;;;;;;;11.60;9.80;;;32.10;92.60;;;;;;5012532;28;20038;-74
2022/07/30 09:11:34;;;;;;;11.60;10.35;;;31.90;92.40;;;;;;4995316;28;20050;-77
2022/07/30 09:14:09;;;;;;;12.52;10.73;;;32.00;93.00;;;;;;5014288;28;20053;-75
2022/07/30 09:16:39;;;;;;;14.85;10.80;;;31.90;93.90;;;;;;5014336;28;20078;-76
2022/07/30 09:19:15;;;;;;;15.30;12.05;;;32.10;94.10;;;;;;5014718;28;20046;-75
2022/07/30 09:21:43;;;;;;;14.55;13.05;;;32.40;94.20;;;;;;5007122;28;20096;-75
2022/07/30 09:24:23;;;;;;;13.38;11.25;;;32.50;94.50;;;;;;4997056;28;20519;-74
2022/07/30 09:26:59;;;;;;;15.90;14.23;;;32.80;94.30;;;;;;5013321;28;20056;-75
2022/07/30 09:29:56;;;;;;;13.55;12.23;;;33.10;94.00;;;;;;5013954;28;20515;-75
2022/07/30 09:32:50;;;;;;;14.30;12.88;;;33.10;93.60;;;;;;5014140;28;20096;-75
2022/07/30 09:35:36;;;;;;;14.13;12.65;;;32.90;93.90;;;;;;5013396;28;20520;-75
2022/07/30 09:38:10;;;;;;;16.35;12.30;;;33.10;93.70;;;;;;5051547;22;20041;-73
2022/07/30 09:41:03;;;;;;;12.18;11.00;;;33.40;93.50;;;;;;5006460;28;20056;-74
2022/07/30 09:43:42;;;;;;;12.90;11.07;;;33.20;93.20;;;;;;5033129;28;20049;-74
2022/07/30 09:46:14;;;;;;;11.07;9.48;;;33.00;93.20;;;;;;5013373;28;20415;-74
2022/07/30 09:48:45;;;;;;;11.15;10.05;;;32.90;92.00;;;;;;5016297;28;20092;-73
2022/07/30 09:51:13;;;;;;;12.60;10.88;;;33.30;91.50;;;;;;5015221;28;20049;-74
2022/07/30 09:53:54;;;;;;;12.95;11.65;;;33.20;91.90;;;;;;5007150;28;20160;-74
2022/07/30 09:56:28;;;;;;;21.52;19.08;;;33.20;91.30;;;;;;5007827;28;20044;-74
2022/07/30 09:58:56;;;;;;;15.32;10.13;;;32.90;89.10;;;;;;5031456;28;20132;-76
2022/07/30 10:01:23;;;;;;;16.13;11.13;;;32.70;89.30;;;;;;5025288;28;20046;-74
2022/07/30 10:04:22;;;;;;;18.17;9.45;;;32.70;90.10;;;;;;5037721;28;20494;-75
2022/07/30 10:07:02;;;;;;;10.63;9.57;;;32.70;90.10;;;;;;5031693;28;20049;-73
2022/07/30 10:09:43;;;;;;;12.48;10.07;;;32.40;90.30;;;;;;5012394;28;20086;-73
2022/07/30 10:12:14;;;;;;;11.73;10.20;;;32.30;90.00;;;;;;5030963;28;20045;-74
2022/07/30 10:14:47;;;;;;;13.50;11.55;;;32.20;89.70;;;;;;5034597;28;20049;-74
2022/07/30 10:17:18;;;;;;;9.82;7.95;;;32.10;89.60;;;;;;5029791;28;20522;-75
2022/07/30 10:20:26;;;;;;;9.82;8.32;;;31.70;90.00;;;;;;4971742;28;20043;-73
2022/07/30 10:23:12;;;;;;;9.60;8.55;;;31.80;90.10;;;;;;4972023;28;20058;-73
2022/07/30 10:25:59;;;;;;;11.32;8.82;;;32.00;89.50;;;;;;5032354;28;20243;-74
2022/07/30 10:28:46;;;;;;;15.88;14.00;;;32.20;89.20;;;;;;5052244;28;20064;-73
2022/07/30 10:31:16;;;;;;;12.18;9.95;;;32.20;89.20;;;;;;5012992;28;20049;-74
2022/07/30 10:33:43;;;;;;;9.13;8.23;;;32.10;89.00;;;;;;4995423;28;20042;-74
2022/07/30 10:36:13;;;;;;;9.05;7.30;;;32.00;87.80;;;;;;5035753;28;20508;-75
2022/07/30 10:38:43;;;;;;;9.63;7.07;;;31.50;88.40;;;;;;5051430;28;20077;-73
2022/07/30 10:41:24;;;;;;;8.20;7.20;;;31.50;89.30;;;;;;5052868;28;20041;-74
2022/07/30 10:44:11;;;;;;;8.85;6.90;;;31.40;89.70;;;;;;5052678;28;20123;-76
2022/07/30 10:46:50;;;;;;;12.77;7.75;;;31.50;89.00;;;;;;5052481;28;20048;-76
2022/07/30 10:49:18;;;;;;;9.32;7.10;;;31.50;90.00;;;;;;5034618;28;20479;-74
2022/07/30 10:51:49;;;;;;;10.80;7.93;;;31.70;90.20;;;;;;5052335;28;20041;-74
2022/07/30 10:54:37;;;;;;;12.68;7.95;;;31.90;91.80;;;;;;5050620;28;20048;-74
2022/07/30 10:57:06;;;;;;;10.70;9.38;;;32.00;90.60;;;;;;5031943;28;20128;-74
2022/07/30 11:00:06;;;;;;;8.77;7.97;;;32.40;90.20;;;;;;5031089;28;20099;-74
2022/07/30 11:02:35;;;;;;;13.65;8.23;;;32.60;90.20;;;;;;5052705;28;20037;-74
2022/07/30 11:05:33;;;;;;;10.65;8.63;;;32.70;90.40;;;;;;5019318;28;20068;-72
2022/07/30 11:08:33;;;;;;;11.82;7.97;;;32.70;90.50;;;;;;4971721;28;20051;-76
2022/07/30 11:11:01;;;;;;;13.20;8.50;;;32.70;90.20;;;;;;5035794;28;20104;-72
2022/07/30 11:13:50;;;;;;;12.88;8.70;;;32.60;90.10;;;;;;5017900;28;20550;-73
2022/07/30 11:16:19;;;;;;;16.23;8.48;;;32.60;88.20;;;;;;5030309;28;20061;-75
2022/07/30 11:19:07;;;;;;;13.32;10.95;;;32.50;89.50;;;;;;5036401;28;20046;-75
2022/07/30 11:21:35;;;;;;;13.60;12.15;;;32.50;89.80;;;;;;5036544;28;20440;-78
2022/07/30 11:24:05;;;;;;;16.35;12.32;;;32.40;89.40;;;;;;5028729;28;20138;-75
2022/07/30 11:26:52;;;;;;;16.65;12.68;;;32.20;90.00;;;;;;5050504;28;20095;-74
2022/07/30 11:29:34;;;;;;;13.55;10.45;;;31.90;90.30;;;;;;5056002;28;20457;-73
2022/07/30 11:32:29;;;;;;;12.10;10.05;;;32.00;90.10;;;;;;5056146;28;20043;-73
2022/07/30 11:35:15;;;;;;;9.73;8.60;;;31.80;90.30;;;;;;5056199;28;20075;-72
2022/07/30 11:38:00;;;;;;;;;;;31.90;90.30;;;;;;5050653;28;20138;-73
2022/07/30 11:40:30;;;;;;;13.50;11.57;;;31.70;90.60;;;;;;5038483;28;20379;-73
2022/07/30 11:43:23;;;;;;;12.38;10.77;;;32.00;90.50;;;;;;5035698;28;20053;-73
2022/07/30 11:45:51;;;;;;;10.38;9.27;;;32.00;90.90;;;;;;5038396;28;20037;-73
2022/07/30 11:48:20;;;;;;;10.35;8.75;;;32.10;90.70;;;;;;5035332;28;20416;-73
2022/07/30 11:50:48;;;;;;;11.00;8.10;;;32.20;90.60;;;;;;5035373;28;20384;-75
2022/07/30 11:53:18;;;;;;;15.20;12.73;;;32.00;90.50;;;;;;5035010;28;20053;-73
2022/07/30 11:55:55;;;;;;;13.45;9.02;;;32.10;90.80;;;;;;5035477;28;20092;-73
2022/07/30 11:58:28;;;;;;;13.02;8.60;;;31.90;90.90;;;;;;5035218;28;20043;-73
2022/07/30 12:00:57;;;;;;;9.73;7.15;;;31.80;91.30;;;;;;5038470;28;20120;-73
2022/07/30 12:03:26;;;;;;;8.45;7.53;;;31.50;91.40;;;;;;5034170;28;20487;-73
2022/07/30 12:05:54;;;;;;;9.07;7.90;;;31.20;91.30;;;;;;5035392;28;20498;-73
2022/07/30 12:08:22;;;;;;;9.07;7.10;;;31.10;90.40;;;;;;5035315;28;20481;-73
2022/07/30 12:10:59;;;;;;;8.77;7.07;;;31.30;90.30;;;;;;5035389;28;20069;-74
2022/07/30 12:13:26;;;;;;;10.23;8.00;;;31.40;90.30;;;;;;5036103;28;20128;-74
2022/07/30 12:15:53;;;;;;;8.90;7.43;;;31.70;90.40;;;;;;5036378;28;20610;-73
2022/07/30 12:18:25;;;;;;;8.77;7.85;;;32.00;89.80;;;;;;5043392;28;20451;-73
2022/07/30 12:20:57;;;;;;;9.15;7.03;;;31.90;90.00;;;;;;5044332;28;20494;-75
2022/07/30 12:23:25;;;;;;;10.50;7.80;;;31.40;90.10;;;;;;5059070;28;20102;-75
2022/07/30 12:25:53;;;;;;;11.00;7.35;;;30.90;90.70;;;;;;5059756;28;20435;-75
2022/07/30 12:28:23;;;;;;;11.13;7.80;;;30.70;91.20;;;;;;5043398;28;20115;-74
2022/07/30 12:30:51;;;;;;;9.65;8.05;;;30.50;91.50;;;;;;5038631;28;20041;-73
2022/07/30 12:33:19;;;;;;;10.48;8.20;;;30.60;91.70;;;;;;5047446;28;20049;-74
2022/07/30 12:35:48;;;;;;;13.32;8.55;;;30.40;92.00;;;;;;5052462;28;20040;-74
2022/07/30 12:38:16;;;;;;;13.52;8.48;;;29.80;92.40;;;;;;5054058;28;20053;-73
2022/07/30 12:40:54;;;;;;;9.82;8.63;;;29.60;93.00;;;;;;5036293;28;20041;-74
2022/07/30 12:43:45;;;;;;;11.85;9.18;;;29.40;93.50;;;;;;5034170;28;20053;-75
2022/07/30 12:46:15;;;;;;;13.10;10.18;;;29.30;94.00;;;;;;5015185;28;20486;-73
2022/07/30 12:48:57;;;;;;;16.15;10.77;;;29.10;94.40;;;;;;5034252;28;20045;-73
2022/07/30 12:51:27;;;;;;;16.02;11.10;;;29.00;94.90;;;;;;5034423;28;20030;-74
2022/07/30 12:53:56;;;;;;;16.27;11.50;;;29.00;95.20;;;;;;5034149;28;20095;-73
2022/07/30 12:56:25;;;;;;;16.85;11.25;;;28.90;95.70;;;;;;5016422;28;20068;-75
2022/07/30 12:58:54;;;;;;;16.30;11.90;;;28.70;96.30;;;;;;5017189;28;20046;-73
2022/07/30 13:01:39;;;;;;;20.10;11.93;;;28.50;96.90;;;;;;5035938;28;20407;-74